createdAt,value
2023-10-18T00:00:15.480Z,1
2023-10-18T00:01:15.535Z,0
2023-10-18T00:02:15.496Z,0
2023-10-18T00:03:15.593Z,0
2023-10-18T00:04:15.586Z,0
2023-10-18T00:05:15.508Z,0
2023-10-18T00:06:15.450Z,0
2023-10-18T00:07:15.546Z,0
2023-10-18T00:08:15.507Z,1
2023-10-18T00:09:15.508Z,0
2023-10-18T00:10:15.575Z,1
2023-10-18T00:11:15.491Z,0
2023-10-18T00:12:15.470Z,0
2023-10-18T00:13:15.539Z,0
2023-10-18T00:14:15.508Z,0
2023-10-18T00:15:15.457Z,0
2023-10-18T00:16:15.512Z,0
2023-10-18T00:17:15.469Z,0
2023-10-18T00:18:15.644Z,0
2023-10-18T00:19:15.524Z,0
2023-10-18T00:20:15.492Z,0
2023-10-18T00:21:15.469Z,0
2023-10-18T00:22:15.556Z,0
2023-10-18T00:23:15.535Z,0
2023-10-18T00:24:15.510Z,0
2023-10-18T00:25:15.553Z,1
2023-10-18T00:26:15.511Z,0
2023-10-18T00:27:15.507Z,0
2023-10-18T00:28:15.539Z,0
2023-10-18T00:29:15.495Z,0
2023-10-18T00:30:15.511Z,0
2023-10-18T00:31:15.576Z,0
2023-10-18T00:32:15.510Z,0
2023-10-18T00:33:15.453Z,0
2023-10-18T00:34:15.531Z,0
2023-10-18T00:35:15.495Z,0
2023-10-18T00:36:15.474Z,0
2023-10-18T00:37:15.503Z,0
2023-10-18T00:38:15.493Z,0
2023-10-18T00:39:15.519Z,0
2023-10-18T00:40:15.510Z,0
2023-10-18T00:41:15.514Z,0
2023-10-18T00:42:15.510Z,1
2023-10-18T00:43:15.748Z,0
2023-10-18T00:44:15.506Z,0
2023-10-18T00:45:15.489Z,0
2023-10-18T00:46:15.681Z,0
2023-10-18T00:47:15.494Z,0
2023-10-18T00:48:15.529Z,0
2023-10-18T00:49:15.859Z,1
2023-10-18T00:50:15.526Z,0
2023-10-18T00:51:15.494Z,0
2023-10-18T00:52:15.516Z,0
2023-10-18T00:53:15.491Z,0
2023-10-18T00:54:15.489Z,0
2023-10-18T00:55:15.569Z,0
2023-10-18T00:56:15.498Z,0
2023-10-18T00:57:16.445Z,1
2023-10-18T00:58:15.523Z,0
2023-10-18T00:59:15.517Z,0
2023-10-18T01:00:15.478Z,0
2023-10-18T01:01:15.518Z,0
2023-10-18T01:02:15.520Z,0
2023-10-18T01:03:15.552Z,0
2023-10-18T01:04:15.618Z,0
2023-10-18T01:05:15.474Z,0
2023-10-18T01:06:15.511Z,0
2023-10-18T01:07:15.567Z,1
2023-10-18T01:08:15.490Z,0
2023-10-18T01:09:15.500Z,0
2023-10-18T01:10:15.575Z,0
2023-10-18T01:11:15.525Z,0
2023-10-18T01:12:15.520Z,0
2023-10-18T01:13:15.533Z,0
2023-10-18T01:14:15.499Z,0
2023-10-18T01:15:15.531Z,1
2023-10-18T01:16:15.751Z,1
2023-10-18T01:17:15.513Z,0
2023-10-18T01:18:15.486Z,0
2023-10-18T01:19:15.526Z,0
2023-10-18T01:20:15.515Z,0
2023-10-18T01:21:15.500Z,0
2023-10-18T01:22:15.528Z,0
2023-10-18T01:23:15.499Z,0
2023-10-18T01:24:15.560Z,1
2023-10-18T01:25:15.552Z,0
2023-10-18T01:26:15.514Z,1
2023-10-18T01:27:15.508Z,0
2023-10-18T01:28:15.569Z,0
2023-10-18T01:29:15.495Z,0
2023-10-18T01:30:15.490Z,0
2023-10-18T01:31:15.598Z,0
2023-10-18T01:32:15.511Z,0
2023-10-18T01:33:15.493Z,0
2023-10-18T01:34:15.506Z,0
2023-10-18T01:35:15.512Z,1
2023-10-18T01:36:15.507Z,0
2023-10-18T01:37:15.512Z,0
2023-10-18T01:38:15.529Z,0
2023-10-18T01:39:15.457Z,0
2023-10-18T01:40:15.578Z,0
2023-10-18T01:41:15.519Z,0
2023-10-18T01:42:15.525Z,0
2023-10-18T01:43:15.566Z,0
2023-10-18T01:44:15.502Z,0
2023-10-18T01:45:15.505Z,0
2023-10-18T01:46:15.597Z,0
2023-10-18T01:47:15.542Z,0
2023-10-18T01:48:15.534Z,0
2023-10-18T01:49:15.543Z,0
2023-10-18T01:50:15.475Z,0
2023-10-18T01:51:15.513Z,0
2023-10-18T01:52:15.557Z,0
2023-10-18T01:53:15.513Z,0
2023-10-18T01:54:15.538Z,0
2023-10-18T01:55:15.490Z,0
2023-10-18T01:56:15.479Z,0
2023-10-18T01:57:15.515Z,0
2023-10-18T01:58:15.578Z,1
2023-10-18T01:59:15.526Z,0
2023-10-18T02:00:15.516Z,0
2023-10-18T02:01:15.568Z,0
2023-10-18T02:02:15.510Z,0
2023-10-18T02:03:15.572Z,0
2023-10-18T02:04:15.535Z,0
2023-10-18T02:05:15.494Z,0
2023-10-18T02:06:15.532Z,0
2023-10-18T02:07:15.559Z,0
2023-10-18T02:08:15.510Z,0
2023-10-18T02:09:15.509Z,0
2023-10-18T02:10:15.560Z,0
2023-10-18T02:11:15.477Z,0
2023-10-18T02:12:15.516Z,0
2023-10-18T02:13:15.582Z,0
2023-10-18T02:14:15.521Z,0
2023-10-18T02:15:15.462Z,1
2023-10-18T02:16:15.601Z,0
2023-10-18T02:17:15.523Z,0
2023-10-18T02:18:15.682Z,0
2023-10-18T02:19:15.554Z,0
2023-10-18T02:20:15.512Z,0
2023-10-18T02:21:15.466Z,0
2023-10-18T02:22:15.547Z,0
2023-10-18T02:23:15.499Z,0
2023-10-18T02:24:15.493Z,0
2023-10-18T02:25:15.520Z,0
2023-10-18T02:26:15.483Z,0
2023-10-18T02:27:15.494Z,0
2023-10-18T02:28:15.494Z,0
2023-10-18T02:29:15.497Z,0
2023-10-18T02:30:15.514Z,0
2023-10-18T02:31:15.515Z,0
2023-10-18T02:32:15.491Z,0
2023-10-18T02:33:15.511Z,0
2023-10-18T02:34:28.459Z,1
2023-10-18T02:35:15.487Z,0
2023-10-18T02:36:15.510Z,0
2023-10-18T02:37:15.519Z,0
2023-10-18T02:38:15.470Z,0
2023-10-18T02:39:15.507Z,0
2023-10-18T02:40:15.509Z,1
2023-10-18T02:41:15.490Z,0
2023-10-18T02:42:15.486Z,0
2023-10-18T02:43:15.529Z,0
2023-10-18T02:44:15.513Z,0
2023-10-18T02:45:15.648Z,0
2023-10-18T02:46:15.520Z,0
2023-10-18T02:47:15.463Z,0
2023-10-18T02:48:15.484Z,0
2023-10-18T02:49:15.547Z,0
2023-10-18T02:50:15.808Z,0
2023-10-18T02:51:15.481Z,0
2023-10-18T02:52:15.549Z,1
2023-10-18T02:53:15.489Z,0
2023-10-18T02:54:15.498Z,0
2023-10-18T02:55:15.507Z,0
2023-10-18T02:56:15.462Z,0
2023-10-18T02:57:15.480Z,1
2023-10-18T02:58:15.585Z,0
2023-10-18T02:59:15.443Z,0
2023-10-18T03:00:15.497Z,0
2023-10-18T03:01:15.625Z,0
2023-10-18T03:02:15.479Z,0
2023-10-18T03:03:15.484Z,0
2023-10-18T03:04:15.596Z,0
2023-10-18T03:05:15.498Z,1
2023-10-18T03:06:15.702Z,0
2023-10-18T03:07:15.608Z,0
2023-10-18T03:08:15.464Z,0
2023-10-18T03:09:15.478Z,0
2023-10-18T03:10:15.527Z,0
2023-10-18T03:11:15.481Z,0
2023-10-18T03:12:15.470Z,0
2023-10-18T03:13:15.487Z,0
2023-10-18T03:14:15.471Z,1
2023-10-18T03:15:15.500Z,0
2023-10-18T03:16:15.546Z,0
2023-10-18T03:17:15.539Z,0
2023-10-18T03:18:15.519Z,0
2023-10-18T03:19:15.495Z,0
2023-10-18T03:20:15.480Z,0
2023-10-18T03:21:15.494Z,1
2023-10-18T03:22:15.495Z,1
2023-10-18T03:23:15.501Z,0
2023-10-18T03:24:15.504Z,0
2023-10-18T03:25:15.551Z,0
2023-10-18T03:26:15.508Z,1
2023-10-18T03:27:15.461Z,0
2023-10-18T03:28:15.547Z,0
2023-10-18T03:29:15.477Z,0
2023-10-18T03:30:15.507Z,1
2023-10-18T03:31:15.518Z,0
2023-10-18T03:32:15.462Z,0
2023-10-18T03:33:15.579Z,0
2023-10-18T03:34:15.524Z,0
2023-10-18T03:35:15.454Z,0
2023-10-18T03:36:20.863Z,0
2023-10-18T03:37:15.514Z,0
2023-10-18T03:38:15.493Z,0
2023-10-18T03:39:15.508Z,1
2023-10-18T03:40:15.550Z,0
2023-10-18T03:41:15.486Z,0
2023-10-18T03:42:15.500Z,0
2023-10-18T03:43:15.533Z,0
2023-10-18T03:44:15.467Z,0
2023-10-18T03:45:15.503Z,1
2023-10-18T03:46:15.683Z,1
2023-10-18T03:47:15.531Z,1
2023-10-18T03:48:15.499Z,1
2023-10-18T03:49:15.505Z,0
2023-10-18T03:50:15.467Z,0
2023-10-18T03:51:15.488Z,0
2023-10-18T03:52:15.586Z,0
2023-10-18T03:53:15.501Z,0
2023-10-18T03:54:15.502Z,0
2023-10-18T03:55:15.558Z,1
2023-10-18T03:56:15.494Z,1
2023-10-18T03:57:15.463Z,0
2023-10-18T03:58:15.545Z,0
2023-10-18T03:59:15.456Z,0
2023-10-18T04:00:15.500Z,0
2023-10-18T04:01:15.572Z,0
2023-10-18T04:02:15.476Z,0
2023-10-18T04:03:15.502Z,1
2023-10-18T04:04:15.545Z,0
2023-10-18T04:05:15.489Z,0
2023-10-18T04:06:15.431Z,1
2023-10-18T04:07:15.507Z,0
2023-10-18T04:08:15.919Z,0
2023-10-18T04:09:15.493Z,0
2023-10-18T04:10:15.468Z,1
2023-10-18T04:11:15.490Z,1
2023-10-18T04:12:15.474Z,1
2023-10-18T04:13:15.754Z,0
2023-10-18T04:14:15.466Z,0
2023-10-18T04:15:15.450Z,0
2023-10-18T04:16:15.521Z,0
2023-10-18T04:17:15.485Z,0
2023-10-18T04:18:15.483Z,0
2023-10-18T04:19:15.522Z,1
2023-10-18T04:20:15.465Z,1
2023-10-18T04:21:15.495Z,0
2023-10-18T04:22:15.508Z,0
2023-10-18T04:23:15.483Z,0
2023-10-18T04:24:15.511Z,0
2023-10-18T04:25:15.659Z,0
2023-10-18T04:26:15.472Z,1
2023-10-18T04:27:15.475Z,1
2023-10-18T04:28:15.534Z,0
2023-10-18T04:29:15.483Z,0
2023-10-18T04:30:15.470Z,0
2023-10-18T04:31:15.575Z,0
2023-10-18T04:32:15.445Z,0
2023-10-18T04:33:15.532Z,0
2023-10-18T04:34:15.593Z,1
2023-10-18T04:35:15.481Z,0
2023-10-18T04:36:15.485Z,0
2023-10-18T04:37:15.493Z,1
2023-10-18T04:38:15.464Z,0
2023-10-18T04:39:15.467Z,0
2023-10-18T04:40:15.540Z,0
2023-10-18T04:41:15.487Z,2
2023-10-18T04:42:15.492Z,1
2023-10-18T04:43:15.442Z,2
2023-10-18T04:44:15.461Z,2
2023-10-18T04:45:15.482Z,2
2023-10-18T04:46:15.552Z,2
2023-10-18T04:47:15.644Z,3
2023-10-18T04:48:15.455Z,4
2023-10-18T04:49:15.511Z,5
2023-10-18T04:50:15.463Z,8
2023-10-18T04:51:15.441Z,9
2023-10-18T04:52:15.474Z,11
2023-10-18T04:53:15.443Z,13
2023-10-18T04:54:15.437Z,16
2023-10-18T04:55:15.556Z,19
2023-10-18T04:56:15.459Z,18
2023-10-18T04:57:15.435Z,29
2023-10-18T04:58:15.524Z,35
2023-10-18T04:59:15.463Z,41
2023-10-18T05:00:15.492Z,48
2023-10-18T05:01:15.553Z,57
2023-10-18T05:02:15.500Z,67
2023-10-18T05:03:15.560Z,78
2023-10-18T05:04:15.562Z,90
2023-10-18T05:05:15.472Z,106
2023-10-18T05:06:15.471Z,123
2023-10-18T05:07:15.625Z,140
2023-10-18T05:08:15.478Z,158
2023-10-18T05:09:15.483Z,179
2023-10-18T05:10:15.693Z,202
2023-10-18T05:11:15.481Z,227
2023-10-18T05:12:15.485Z,253
2023-10-18T05:13:15.561Z,284
2023-10-18T05:14:15.456Z,314
2023-10-18T05:15:15.445Z,348
2023-10-18T05:16:15.551Z,386
2023-10-18T05:17:15.569Z,424
2023-10-18T05:18:15.486Z,474
2023-10-18T05:19:15.492Z,532
2023-10-18T05:20:15.466Z,602
2023-10-18T05:21:15.482Z,673
2023-10-18T05:22:15.571Z,741
2023-10-18T05:23:15.462Z,804
2023-10-18T05:24:15.472Z,873
2023-10-18T05:25:15.659Z,956
2023-10-18T05:26:15.444Z,1049
2023-10-18T05:27:15.482Z,1142
2023-10-18T05:28:15.467Z,1251
2023-10-18T05:29:15.470Z,1377
2023-10-18T05:30:15.483Z,1511
2023-10-18T05:31:15.489Z,1664
2023-10-18T05:32:15.507Z,1826
2023-10-18T05:33:15.490Z,2013
2023-10-18T05:34:15.543Z,2235
2023-10-18T05:35:15.495Z,2472
2023-10-18T05:36:15.484Z,2729
2023-10-18T05:37:15.573Z,2984
2023-10-18T05:38:15.491Z,3288
2023-10-18T05:39:15.494Z,3603
2023-10-18T05:40:15.487Z,3947
2023-10-18T05:41:15.466Z,4302
2023-10-18T05:42:15.448Z,4623
2023-10-18T05:43:15.483Z,4973
2023-10-18T05:44:15.491Z,4776
2023-10-18T05:45:15.490Z,4736
2023-10-18T05:46:15.549Z,5812
2023-10-18T05:47:15.473Z,6438
2023-10-18T05:48:15.480Z,6415
2023-10-18T05:49:15.583Z,6778
2023-10-18T05:50:15.467Z,6454
2023-10-18T05:51:20.439Z,6845
2023-10-18T05:52:15.541Z,8579
2023-10-18T05:53:15.450Z,9074
2023-10-18T05:54:15.469Z,9463
2023-10-18T05:55:15.510Z,9907
2023-10-18T05:56:15.484Z,8830
2023-10-18T05:57:15.468Z,9230
2023-10-18T05:58:15.508Z,9633
2023-10-18T05:59:15.482Z,9958
2023-10-18T06:00:15.495Z,9400
2023-10-18T06:01:15.564Z,10656
2023-10-18T06:02:15.480Z,10959
2023-10-18T06:03:15.488Z,11147
2023-10-18T06:04:15.545Z,11271
2023-10-18T06:05:15.494Z,12191
2023-10-18T06:06:15.493Z,12464
2023-10-18T06:07:15.492Z,12890
2023-10-18T06:08:15.461Z,13305
2023-10-18T06:09:15.482Z,13642
2023-10-18T06:10:15.457Z,14111
2023-10-18T06:11:15.476Z,14446
2023-10-18T06:12:15.472Z,14895
2023-10-18T06:13:15.515Z,15345
2023-10-18T06:14:15.482Z,15665
2023-10-18T06:15:17.806Z,15782
2023-10-18T06:16:15.642Z,16289
2023-10-18T06:17:15.449Z,16634
2023-10-18T06:18:15.449Z,16915
2023-10-18T06:19:15.481Z,17372
2023-10-18T06:20:15.554Z,17507
2023-10-18T06:21:15.468Z,17702
2023-10-18T06:22:15.510Z,17091
2023-10-18T06:23:15.466Z,14186
2023-10-18T06:24:15.491Z,12491
2023-10-18T06:25:15.521Z,12884
2023-10-18T06:26:15.463Z,15742
2023-10-18T06:27:15.486Z,11602
2023-10-18T06:28:15.513Z,15266
2023-10-18T06:29:15.464Z,16586
2023-10-18T06:30:15.499Z,12518
2023-10-18T06:31:15.597Z,14195
2023-10-18T06:32:15.515Z,14065
2023-10-18T06:33:15.469Z,17320
2023-10-18T06:34:15.510Z,16425
2023-10-18T06:35:15.502Z,12684
2023-10-18T06:36:15.451Z,15197
2023-10-18T06:37:15.499Z,14519
2023-10-18T06:38:15.471Z,14782
2023-10-18T06:39:15.466Z,11727
2023-10-18T06:40:15.518Z,11849
2023-10-18T06:41:15.453Z,12732
2023-10-18T06:42:15.459Z,18169
2023-10-18T06:43:15.541Z,19762
2023-10-18T06:44:15.456Z,20361
2023-10-18T06:45:15.502Z,17760
2023-10-18T06:46:15.569Z,15956
2023-10-18T06:47:15.478Z,18536
2023-10-18T06:48:15.484Z,18787
2023-10-18T06:49:15.559Z,20289
2023-10-18T06:50:18.322Z,18634
2023-10-18T06:51:15.525Z,20691
2023-10-18T06:52:17.805Z,19215
2023-10-18T06:53:15.529Z,21699
2023-10-18T06:54:15.493Z,21206
2023-10-18T06:55:15.532Z,21727
2023-10-18T06:56:15.471Z,17608
2023-10-18T06:57:15.486Z,20688
2023-10-18T06:58:15.531Z,20389
2023-10-18T06:59:15.497Z,19339
2023-10-18T07:00:15.462Z,19998
2023-10-18T07:01:15.705Z,25998
2023-10-18T07:02:15.512Z,28507
2023-10-18T07:03:15.551Z,28486
2023-10-18T07:04:15.525Z,28210
2023-10-18T07:05:15.465Z,28297
2023-10-18T07:06:15.483Z,28668
2023-10-18T07:07:15.463Z,30393
2023-10-18T07:08:15.496Z,31193
2023-10-18T07:09:15.459Z,30652
2023-10-18T07:10:15.502Z,30152
2023-10-18T07:11:22.271Z,30147
2023-10-18T07:12:15.468Z,25860
2023-10-18T07:13:15.522Z,20794
2023-10-18T07:14:15.469Z,17541
2023-10-18T07:15:15.468Z,25185
2023-10-18T07:16:15.697Z,23670
2023-10-18T07:17:15.478Z,22232
2023-10-18T07:18:15.469Z,23526
2023-10-18T07:19:15.518Z,23851
2023-10-18T07:20:15.503Z,28269
2023-10-18T07:21:15.483Z,25696
2023-10-18T07:22:15.524Z,28353
2023-10-18T07:23:15.487Z,28688
2023-10-18T07:24:15.477Z,28749
2023-10-18T07:25:15.496Z,29755
2023-10-18T07:26:15.468Z,29512
2023-10-18T07:27:15.466Z,27841
2023-10-18T07:28:15.501Z,30782
2023-10-18T07:29:15.450Z,30928
2023-10-18T07:30:15.715Z,30639
2023-10-18T07:31:15.546Z,30556
2023-10-18T07:32:15.535Z,32718
2023-10-18T07:33:15.486Z,30752
2023-10-18T07:34:15.508Z,31300
2023-10-18T07:35:15.485Z,32289
2023-10-18T07:36:15.468Z,31022
2023-10-18T07:37:15.518Z,34481
2023-10-18T07:38:17.905Z,36604
2023-10-18T07:39:15.471Z,35189
2023-10-18T07:40:15.510Z,34931
2023-10-18T07:41:15.483Z,33948
2023-10-18T07:42:15.497Z,23492
2023-10-18T07:43:15.509Z,28532
2023-10-18T07:44:15.481Z,24902
2023-10-18T07:45:15.492Z,25166
2023-10-18T07:46:15.499Z,24247
2023-10-18T07:47:15.490Z,21401
2023-10-18T07:48:15.494Z,22992
2023-10-18T07:49:16.041Z,26001
2023-10-18T07:50:15.497Z,26212
2023-10-18T07:51:15.483Z,27274
2023-10-18T07:52:15.503Z,26178
2023-10-18T07:53:15.496Z,33210
2023-10-18T07:54:15.482Z,29079
2023-10-18T07:55:15.541Z,32262
2023-10-18T07:56:15.464Z,34553
2023-10-18T07:57:15.490Z,28190
2023-10-18T07:58:15.475Z,31447
2023-10-18T07:59:15.474Z,26884
2023-10-18T08:00:15.490Z,36929
2023-10-18T08:01:15.525Z,28031
2023-10-18T08:02:15.466Z,33696
2023-10-18T08:03:15.540Z,31193
2023-10-18T08:04:15.676Z,34620
2023-10-18T08:05:15.719Z,33860
2023-10-18T08:06:15.548Z,32411
2023-10-18T08:07:15.513Z,25860
2023-10-18T08:08:15.464Z,22452
2023-10-18T08:09:15.448Z,26757
2023-10-18T08:10:15.517Z,27472
2023-10-18T08:11:15.476Z,26198
2023-10-18T08:12:15.497Z,20308
2023-10-18T08:13:15.554Z,32033
2023-10-18T08:14:15.484Z,33571
2023-10-18T08:15:15.602Z,29145
2023-10-18T08:16:15.507Z,32288
2023-10-18T08:17:15.501Z,34628
2023-10-18T08:18:15.450Z,37020
2023-10-18T08:19:15.490Z,35343
2023-10-18T08:20:15.491Z,37234
2023-10-18T08:21:15.463Z,37394
2023-10-18T08:22:15.465Z,32108
2023-10-18T08:23:15.485Z,28819
2023-10-18T08:24:15.478Z,34891
2023-10-18T08:25:15.481Z,32672
2023-10-18T08:26:15.497Z,29960
2023-10-18T08:27:15.487Z,32098
2023-10-18T08:28:15.562Z,31387
2023-10-18T08:29:15.471Z,34008
2023-10-18T08:30:15.470Z,35811
2023-10-18T08:31:15.538Z,26794
2023-10-18T08:32:15.540Z,34970
2023-10-18T08:33:15.484Z,18781
2023-10-18T08:34:15.597Z,32628
2023-10-18T08:35:15.493Z,31746
2023-10-18T08:36:15.497Z,15091
2023-10-18T08:37:15.526Z,36539
2023-10-18T08:38:15.496Z,15054
2023-10-18T08:39:15.486Z,30081
2023-10-18T08:40:15.548Z,26126
2023-10-18T08:41:15.479Z,25682
2023-10-18T08:42:15.500Z,40165
2023-10-18T08:43:15.485Z,34323
2023-10-18T08:44:15.467Z,41722
2023-10-18T08:45:15.455Z,40065
2023-10-18T08:46:15.524Z,40640
2023-10-18T08:47:18.063Z,43834
2023-10-18T08:48:15.512Z,46171
2023-10-18T08:49:15.482Z,43373
2023-10-18T08:50:15.471Z,47057
2023-10-18T08:51:15.460Z,47172
2023-10-18T08:52:15.489Z,48379
2023-10-18T08:53:15.481Z,45021
2023-10-18T08:54:15.465Z,44963
2023-10-18T08:55:15.531Z,43210
2023-10-18T08:56:15.457Z,46419
2023-10-18T08:57:15.452Z,47393
2023-10-18T08:58:15.522Z,45715
2023-10-18T08:59:15.469Z,45816
2023-10-18T09:00:15.468Z,44368
2023-10-18T09:01:15.537Z,42510
2023-10-18T09:02:15.546Z,41838
2023-10-18T09:03:15.550Z,41317
2023-10-18T09:04:15.535Z,40473
2023-10-18T09:05:15.442Z,35718
2023-10-18T09:06:15.486Z,39616
2023-10-18T09:07:15.508Z,42843
2023-10-18T09:08:15.466Z,38626
2023-10-18T09:09:15.492Z,38454
2023-10-18T09:10:15.576Z,40692
2023-10-18T09:11:15.475Z,40530
2023-10-18T09:12:15.462Z,42275
2023-10-18T09:13:18.750Z,41560
2023-10-18T09:14:15.550Z,42205
2023-10-18T09:15:15.482Z,39583
2023-10-18T09:16:15.535Z,42137
2023-10-18T09:17:15.563Z,42254
2023-10-18T09:18:15.528Z,42539
2023-10-18T09:19:15.567Z,45887
2023-10-18T09:20:15.439Z,46229
2023-10-18T09:21:15.489Z,44178
2023-10-18T09:22:15.562Z,46737
2023-10-18T09:23:15.490Z,47601
2023-10-18T09:24:15.487Z,47101
2023-10-18T09:25:15.508Z,47349
2023-10-18T09:26:15.466Z,46638
2023-10-18T09:27:15.488Z,47886
2023-10-18T09:28:15.569Z,48180
2023-10-18T09:29:15.473Z,49137
2023-10-18T09:30:15.493Z,48740
2023-10-18T09:31:15.899Z,49016
2023-10-18T09:32:15.526Z,38912
2023-10-18T09:33:15.487Z,49212
2023-10-18T09:34:15.543Z,49360
2023-10-18T09:35:15.483Z,26254
2023-10-18T09:36:15.468Z,50114
2023-10-18T09:37:15.582Z,49115
2023-10-18T09:38:15.504Z,48489
2023-10-18T09:39:15.479Z,46100
2023-10-18T09:40:15.516Z,48757
2023-10-18T09:41:15.446Z,50950
2023-10-18T09:42:15.464Z,50035
2023-10-18T09:43:15.486Z,50277
2023-10-18T09:44:15.457Z,49549
2023-10-18T09:45:15.465Z,49849
2023-10-18T09:46:15.533Z,49686
2023-10-18T09:47:15.549Z,49056
2023-10-18T09:48:15.509Z,46843
2023-10-18T09:49:15.506Z,51137
2023-10-18T09:50:15.489Z,52082
2023-10-18T09:51:15.482Z,52237
2023-10-18T09:52:15.507Z,52909
2023-10-18T09:53:15.457Z,53526
2023-10-18T09:54:15.506Z,51771
2023-10-18T09:55:15.459Z,14559
2023-10-18T09:56:15.493Z,52033
2023-10-18T09:57:15.462Z,50776
2023-10-18T09:58:15.513Z,42726
2023-10-18T09:59:15.480Z,48159
2023-10-18T10:00:15.484Z,48579
2023-10-18T10:01:15.599Z,49762
2023-10-18T10:02:15.635Z,46478
2023-10-18T10:03:15.674Z,49957
2023-10-18T10:04:16.289Z,51744
2023-10-18T10:05:15.472Z,45613
2023-10-18T10:06:15.448Z,42701
2023-10-18T10:07:15.536Z,42337
2023-10-18T10:08:15.487Z,44710
2023-10-18T10:09:15.456Z,42377
2023-10-18T10:10:15.505Z,44868
2023-10-18T10:11:15.484Z,44989
2023-10-18T10:12:15.484Z,43637
2023-10-18T10:13:15.495Z,37346
2023-10-18T10:14:15.469Z,39040
2023-10-18T10:15:15.488Z,38363
2023-10-18T10:16:15.516Z,42186
2023-10-18T10:17:15.501Z,43729
2023-10-18T10:18:15.536Z,44610
2023-10-18T10:19:15.515Z,45811
2023-10-18T10:20:15.476Z,46479
2023-10-18T10:21:15.486Z,47043
2023-10-18T10:22:15.534Z,43390
2023-10-18T10:23:15.470Z,45153
2023-10-18T10:24:15.447Z,42933
2023-10-18T10:25:33.588Z,41919
2023-10-18T10:26:32.472Z,38747
2023-10-18T10:27:15.470Z,41348
2023-10-18T10:28:15.575Z,42850
2023-10-18T10:29:15.463Z,44622
2023-10-18T10:30:15.466Z,37154
2023-10-18T10:31:15.521Z,37973
2023-10-18T10:32:15.484Z,45462
2023-10-18T10:33:15.508Z,40835
2023-10-18T10:34:15.467Z,47420
2023-10-18T10:35:15.475Z,44386
2023-10-18T10:36:15.483Z,43749
2023-10-18T10:37:15.491Z,41830
2023-10-18T10:38:16.378Z,42244
2023-10-18T10:39:15.489Z,36634
2023-10-18T10:40:15.484Z,44015
2023-10-18T10:41:15.481Z,46443
2023-10-18T10:42:15.463Z,48093
2023-10-18T10:43:15.535Z,49204
2023-10-18T10:44:15.491Z,48367
2023-10-18T10:45:15.480Z,48989
2023-10-18T10:46:15.553Z,44870
2023-10-18T10:47:15.515Z,43037
2023-10-18T10:48:15.486Z,41836
2023-10-18T10:49:15.546Z,39904
2023-10-18T10:50:15.508Z,38097
2023-10-18T10:51:15.473Z,40463
2023-10-18T10:52:15.501Z,43690
2023-10-18T10:53:15.485Z,47227
2023-10-18T10:54:15.471Z,47415
2023-10-18T10:55:15.555Z,51559
2023-10-18T10:56:15.459Z,43779
2023-10-18T10:57:15.836Z,21925
2023-10-18T10:58:15.558Z,30265
2023-10-18T10:59:15.489Z,22253
2023-10-18T11:00:15.490Z,19759
2023-10-18T11:01:15.565Z,44084
2023-10-18T11:02:15.529Z,43821
2023-10-18T11:03:15.521Z,46116
2023-10-18T11:04:15.503Z,46983
2023-10-18T11:05:15.463Z,42167
2023-10-18T11:06:15.497Z,26168
2023-10-18T11:07:15.555Z,37074
2023-10-18T11:08:15.433Z,37043
2023-10-18T11:09:15.458Z,39240
2023-10-18T11:10:15.523Z,36248
2023-10-18T11:11:15.463Z,31751
2023-10-18T11:12:15.463Z,35395
2023-10-18T11:13:15.493Z,28335
2023-10-18T11:14:15.481Z,22541
2023-10-18T11:15:15.445Z,33521
2023-10-18T11:16:15.541Z,17149
2023-10-18T11:17:15.817Z,16699
2023-10-18T11:18:15.471Z,34056
2023-10-18T11:19:15.477Z,17803
2023-10-18T11:20:15.491Z,38100
2023-10-18T11:21:15.480Z,19803
2023-10-18T11:22:15.478Z,16914
2023-10-18T11:23:15.472Z,17045
2023-10-18T11:24:15.467Z,15854
2023-10-18T11:25:15.492Z,16126
2023-10-18T11:26:15.486Z,17391
2023-10-18T11:27:15.446Z,31737
2023-10-18T11:28:15.499Z,37609
2023-10-18T11:29:15.467Z,19163
2023-10-18T11:30:15.506Z,20699
2023-10-18T11:31:15.628Z,23319
2023-10-18T11:32:15.651Z,29955
2023-10-18T11:33:15.512Z,23478
2023-10-18T11:34:15.651Z,37088
2023-10-18T11:35:18.050Z,21263
2023-10-18T11:36:15.498Z,25916
2023-10-18T11:37:15.557Z,19239
2023-10-18T11:38:15.504Z,21169
2023-10-18T11:39:15.454Z,39487
2023-10-18T11:40:15.503Z,21880
2023-10-18T11:41:15.500Z,35444
2023-10-18T11:42:15.493Z,37462
2023-10-18T11:43:15.514Z,42024
2023-10-18T11:44:15.453Z,39844
2023-10-18T11:45:15.472Z,30892
2023-10-18T11:46:15.532Z,40339
2023-10-18T11:47:15.440Z,37358
2023-10-18T11:48:15.724Z,30823
2023-10-18T11:49:15.500Z,29689
2023-10-18T11:50:15.494Z,29955
2023-10-18T11:51:15.442Z,31526
2023-10-18T11:52:15.568Z,30608
2023-10-18T11:53:15.516Z,26474
2023-10-18T11:54:15.459Z,24874
2023-10-18T11:55:15.519Z,26171
2023-10-18T11:56:15.484Z,27273
2023-10-18T11:57:15.469Z,18321
2023-10-18T11:58:15.482Z,18497
2023-10-18T11:59:15.472Z,19016
2023-10-18T12:00:15.485Z,20910
2023-10-18T12:01:15.492Z,16706
2023-10-18T12:02:15.542Z,17428
2023-10-18T12:03:15.658Z,19737
2023-10-18T12:04:15.603Z,19232
2023-10-18T12:05:15.572Z,19287
2023-10-18T12:06:15.497Z,18093
2023-10-18T12:07:15.584Z,22795
2023-10-18T12:08:15.461Z,25393
2023-10-18T12:09:15.472Z,24418
2023-10-18T12:10:15.505Z,23794
2023-10-18T12:11:15.431Z,26199
2023-10-18T12:12:15.474Z,30000
2023-10-18T12:13:15.489Z,31531
2023-10-18T12:14:15.464Z,31286
2023-10-18T12:15:15.428Z,34947
2023-10-18T12:16:15.536Z,39695
2023-10-18T12:17:15.485Z,40883
2023-10-18T12:18:15.515Z,46089
2023-10-18T12:19:15.526Z,51058
2023-10-18T12:20:15.449Z,56941
2023-10-18T12:21:15.462Z,53667
2023-10-18T12:22:15.484Z,44163
2023-10-18T12:23:17.235Z,40864
2023-10-18T12:24:15.490Z,49623
2023-10-18T12:25:15.523Z,37354
2023-10-18T12:26:15.445Z,32347
2023-10-18T12:27:15.491Z,34342
2023-10-18T12:28:15.528Z,34012
2023-10-18T12:29:15.467Z,35206
2023-10-18T12:30:30.336Z,35080
2023-10-18T12:31:15.483Z,30580
2023-10-18T12:32:15.563Z,38119
2023-10-18T12:33:15.653Z,30353
2023-10-18T12:34:15.539Z,31464
2023-10-18T12:35:15.488Z,31500
2023-10-18T12:36:15.488Z,29612
2023-10-18T12:37:15.474Z,23969
2023-10-18T12:38:15.549Z,22051
2023-10-18T12:39:15.483Z,23123
2023-10-18T12:40:15.486Z,22907
2023-10-18T12:41:15.469Z,21815
2023-10-18T12:42:15.490Z,21862
2023-10-18T12:43:15.484Z,21374
2023-10-18T12:44:15.484Z,20196
2023-10-18T12:45:15.465Z,22361
2023-10-18T12:46:15.585Z,18364
2023-10-18T12:47:15.450Z,19477
2023-10-18T12:48:15.496Z,16218
2023-10-18T12:49:15.500Z,16752
2023-10-18T12:50:15.470Z,15614
2023-10-18T12:51:15.482Z,14728
2023-10-18T12:52:15.437Z,14578
2023-10-18T12:53:15.541Z,14326
2023-10-18T12:55:15.516Z,16318
2023-10-18T12:56:15.466Z,17347
2023-10-18T12:57:15.521Z,16384
2023-10-18T12:58:15.486Z,17000
2023-10-18T12:59:15.525Z,15396
2023-10-18T13:00:15.484Z,16883
2023-10-18T13:01:15.486Z,21124
2023-10-18T13:02:15.511Z,21999
2023-10-18T13:03:15.509Z,22312
2023-10-18T13:04:15.449Z,17665
2023-10-18T13:05:15.555Z,16024
2023-10-18T13:06:15.487Z,16964
2023-10-18T13:07:15.481Z,18270
2023-10-18T13:08:15.556Z,16554
2023-10-18T13:09:15.463Z,17666
2023-10-18T13:10:15.465Z,15036
2023-10-18T13:11:16.015Z,17061
2023-10-18T13:12:15.535Z,18456
2023-10-18T13:13:15.487Z,20504
2023-10-18T13:14:15.483Z,21536
2023-10-18T13:15:15.483Z,24618
2023-10-18T13:16:15.547Z,22288
2023-10-18T13:17:15.500Z,21643
2023-10-18T13:18:15.499Z,19691
2023-10-18T13:19:15.569Z,20033
2023-10-18T13:20:15.526Z,20128
2023-10-18T13:21:15.482Z,14463
2023-10-18T13:22:15.492Z,17596
2023-10-18T13:23:15.511Z,16079
2023-10-18T13:24:15.465Z,15123
2023-10-18T13:25:15.441Z,14764
2023-10-18T13:26:15.542Z,15437
2023-10-18T13:27:15.488Z,16139
2023-10-18T13:28:15.461Z,15841
2023-10-18T13:29:15.538Z,15383
2023-10-18T13:30:15.466Z,14873
2023-10-18T13:31:15.499Z,16447
2023-10-18T13:32:15.497Z,16625
2023-10-18T13:33:15.604Z,16243
2023-10-18T13:34:15.444Z,16124
2023-10-18T13:35:15.519Z,14353